createdAt,value
2018-02-15T00:01:58.279Z,15.80
2018-02-15T00:04:25.944Z,18.58
2018-02-15T00:06:53.607Z,21.37
2018-02-15T00:09:21.298Z,19.85
2018-02-15T00:11:48.971Z,23.75
2018-02-15T00:14:16.659Z,17.00
2018-02-15T00:16:44.324Z,22.70
2018-02-15T00:19:12.028Z,28.95
2018-02-15T00:21:39.698Z,22.37
2018-02-15T00:24:07.355Z,21.52
2018-02-15T00:26:35.036Z,25.17
2018-02-15T00:29:02.715Z,21.95
2018-02-15T00:31:30.513Z,25.45
2018-02-15T00:33:58.171Z,23.00
2018-02-15T00:36:26.040Z,21.42
2018-02-15T00:38:53.710Z,26.67
2018-02-15T00:41:21.368Z,28.23
2018-02-15T00:43:49.060Z,27.55
2018-02-15T00:46:16.728Z,39.85
2018-02-15T00:48:44.420Z,21.92
2018-02-15T00:51:12.082Z,24.27
2018-02-15T00:53:39.763Z,17.90
2018-02-15T00:56:07.544Z,22.58
2018-02-15T00:58:35.206Z,22.45
2018-02-15T01:01:02.883Z,19.20
2018-02-15T01:03:30.544Z,24.05
2018-02-15T01:05:58.231Z,30.25
2018-02-15T01:08:25.908Z,25.95
2018-02-15T01:10:53.580Z,24.00
2018-02-15T01:13:21.270Z,32.22
2018-02-15T01:15:48.960Z,27.92
2018-02-15T01:18:16.906Z,30.17
2018-02-15T01:20:44.569Z,26.02
2018-02-15T01:23:12.235Z,21.10
2018-02-15T01:25:40.027Z,28.27
2018-02-15T01:28:07.697Z,26.15
2018-02-15T01:30:35.394Z,27.25
2018-02-15T01:33:03.067Z,24.05
2018-02-15T01:35:30.900Z,25.77
2018-02-15T01:37:58.575Z,26.08
2018-02-15T01:40:26.273Z,23.27
2018-02-15T01:42:53.964Z,34.03
2018-02-15T01:45:21.634Z,27.67
2018-02-15T01:47:49.335Z,28.85
2018-02-15T01:50:17.073Z,30.52
2018-02-15T01:52:45.143Z,45.55
2018-02-15T01:55:12.814Z,41.47
2018-02-15T01:57:40.510Z,28.42
2018-02-15T02:00:08.240Z,24.83
2018-02-15T02:02:35.900Z,33.75
2018-02-15T02:05:03.594Z,27.23
2018-02-15T02:07:31.272Z,33.55
2018-02-15T02:09:59.346Z,31.00
2018-02-15T02:12:26.302Z,32.08
2018-02-15T02:14:53.976Z,29.95
2018-02-15T02:17:21.676Z,28.85
2018-02-15T02:19:49.348Z,39.42
2018-02-15T02:22:17.040Z,28.05
2018-02-15T02:24:44.708Z,31.75
2018-02-15T02:27:12.576Z,31.75
2018-02-15T02:29:40.239Z,26.23
2018-02-15T02:32:07.912Z,45.22
2018-02-15T02:34:35.614Z,35.70
2018-02-15T02:37:03.292Z,33.03
2018-02-15T02:39:30.984Z,26.27
2018-02-15T02:41:58.648Z,36.08
2018-02-15T02:44:26.512Z,31.98
2018-02-15T02:46:54.175Z,35.15
2018-02-15T02:49:21.848Z,34.50
2018-02-15T02:51:49.640Z,29.83
2018-02-15T02:54:17.319Z,37.92
2018-02-15T02:56:45.781Z,38.30
2018-02-15T02:59:13.449Z,35.45
2018-02-15T03:01:41.484Z,32.78
2018-02-15T03:04:09.152Z,35.33
2018-02-15T03:06:36.821Z,39.65
2018-02-15T03:09:04.572Z,33.72
2018-02-15T03:11:32.236Z,37.70
2018-02-15T03:13:59.928Z,36.20
2018-02-15T03:16:27.619Z,35.15
2018-02-15T03:18:55.503Z,34.63
2018-02-15T03:21:23.180Z,38.75
2018-02-15T03:23:50.851Z,36.13
2018-02-15T03:26:18.547Z,36.47
2018-02-15T03:28:46.215Z,37.42
2018-02-15T03:31:13.917Z,38.83
2018-02-15T03:33:41.710Z,35.53
2018-02-15T03:36:09.575Z,32.05
2018-02-15T03:38:37.255Z,34.17
2018-02-15T03:41:04.927Z,36.40
2018-02-15T03:43:32.620Z,32.83
2018-02-15T03:46:00.307Z,31.17
2018-02-15T03:48:27.997Z,39.42
2018-02-15T03:50:55.683Z,31.77
2018-02-15T03:53:23.504Z,35.55
2018-02-15T03:55:51.162Z,30.08
2018-02-15T03:58:18.835Z,37.50
2018-02-15T04:00:46.518Z,29.67
2018-02-15T04:03:14.208Z,40.90
2018-02-15T04:05:41.911Z,31.90
2018-02-15T04:08:09.583Z,36.42
2018-02-15T04:10:37.619Z,33.30
2018-02-15T04:13:05.287Z,37.08
2018-02-15T04:15:32.956Z,27.35
2018-02-15T04:18:00.750Z,33.05
2018-02-15T04:20:28.417Z,38.78
2018-02-15T04:22:56.116Z,32.63
2018-02-15T04:25:23.784Z,40.95
2018-02-15T04:27:51.735Z,28.80
2018-02-15T04:30:19.403Z,32.63
2018-02-15T04:32:47.094Z,35.00
2018-02-15T04:35:14.783Z,35.70
2018-02-15T04:37:42.557Z,31.35
2018-02-15T04:40:10.251Z,36.15
2018-02-15T04:42:37.914Z,35.92
2018-02-15T04:45:05.750Z,38.05
2018-02-15T04:47:33.459Z,39.05
2018-02-15T04:50:01.136Z,37.88
2018-02-15T04:52:28.863Z,33.88
2018-02-15T04:54:56.531Z,45.65
2018-02-15T04:57:24.217Z,42.88
2018-02-15T04:59:51.885Z,44.25
2018-02-15T05:02:19.883Z,38.35
2018-02-15T05:04:47.547Z,48.87
2018-02-15T05:07:15.216Z,40.97
2018-02-15T05:09:42.904Z,40.97
2018-02-15T05:12:10.567Z,43.83
2018-02-15T05:14:38.260Z,36.80
2018-02-15T05:17:05.969Z,35.88
2018-02-15T05:19:33.684Z,32.28
2018-02-15T05:22:01.367Z,33.67
2018-02-15T05:24:29.045Z,38.78
2018-02-15T05:26:56.728Z,32.97
2018-02-15T05:29:24.400Z,36.35
2018-02-15T05:31:52.146Z,33.17
2018-02-15T05:34:19.912Z,40.72
2018-02-15T05:36:47.772Z,40.63
2018-02-15T05:39:15.444Z,35.47
2018-02-15T05:41:43.103Z,38.13
2018-02-15T05:44:10.866Z,34.60
2018-02-15T05:46:38.538Z,37.15
2018-02-15T05:49:06.224Z,37.25
2018-02-15T05:51:33.887Z,38.35
2018-02-15T05:54:01.817Z,34.78
2018-02-15T05:56:29.496Z,35.08
2018-02-15T05:58:57.166Z,37.80
2018-02-15T06:01:24.911Z,32.97
2018-02-15T06:03:52.580Z,37.47
2018-02-15T06:06:20.279Z,35.60
2018-02-15T06:08:47.951Z,36.05
2018-02-15T06:11:15.755Z,38.35
2018-02-15T06:13:43.518Z,42.25
2018-02-15T06:16:11.184Z,34.22
2018-02-15T06:18:38.871Z,31.98
2018-02-15T06:21:06.539Z,35.90
2018-02-15T06:23:34.678Z,33.65
2018-02-15T06:26:02.345Z,32.08
2018-02-15T06:28:30.013Z,34.83
2018-02-15T06:30:57.703Z,38.35
2018-02-15T06:33:25.365Z,41.00
2018-02-15T06:35:53.411Z,32.45
2018-02-15T06:38:21.089Z,33.35
2018-02-15T06:40:48.835Z,31.95
2018-02-15T06:43:16.527Z,31.12
2018-02-15T06:45:44.183Z,41.55
2018-02-15T06:48:11.871Z,35.47
2018-02-15T06:50:39.535Z,33.47
2018-02-15T06:53:07.215Z,29.73
2018-02-15T06:55:34.896Z,26.98
2018-02-15T06:58:02.593Z,29.45
2018-02-15T07:00:30.265Z,31.60
2018-02-15T07:02:57.988Z,32.35
2018-02-15T07:05:25.671Z,29.30
2018-02-15T07:07:53.341Z,34.08
2018-02-15T07:10:21.033Z,36.25
2018-02-15T07:12:48.750Z,30.52
2018-02-15T07:15:16.489Z,27.60
2018-02-15T07:17:44.140Z,32.40
2018-02-15T07:20:11.927Z,35.97
2018-02-15T07:22:39.607Z,26.00
2018-02-15T07:25:07.275Z,28.35
2018-02-15T07:27:34.962Z,26.60
2018-02-15T07:30:02.691Z,34.28
2018-02-15T07:32:30.382Z,28.23
2018-02-15T07:34:58.055Z,38.45
2018-02-15T07:37:25.783Z,28.17
2018-02-15T07:39:53.479Z,29.92
2018-02-15T07:42:21.167Z,31.95
2018-02-15T07:44:48.868Z,32.92
2018-02-15T07:47:16.552Z,36.13
2018-02-15T07:49:44.264Z,26.67
2018-02-15T07:52:11.928Z,32.22
2018-02-15T07:54:39.647Z,26.77
2018-02-15T07:57:07.386Z,37.53
2018-02-15T07:59:35.154Z,28.38
2018-02-15T08:02:02.848Z,51.30
2018-02-15T08:04:30.544Z,29.80
2018-02-15T08:06:58.228Z,45.55
2018-02-15T08:09:25.907Z,33.80
2018-02-15T08:11:53.664Z,29.20
2018-02-15T08:14:21.348Z,42.65
2018-02-15T08:16:49.021Z,33.78
2018-02-15T08:19:16.717Z,26.77
2018-02-15T08:21:44.400Z,33.60
2018-02-15T08:24:12.103Z,30.27
2018-02-15T08:26:39.780Z,43.60
2018-02-15T08:29:07.502Z,45.65
2018-02-15T08:31:35.267Z,61.42
2018-02-15T08:34:02.944Z,37.80
2018-02-15T08:36:30.641Z,37.95
2018-02-15T08:38:58.318Z,44.92
2018-02-15T08:41:26.013Z,38.72
2018-02-15T08:43:53.771Z,30.98
2018-02-15T08:46:21.842Z,31.08
2018-02-15T08:48:49.506Z,33.42
2018-02-15T08:51:17.192Z,30.17
2018-02-15T08:53:44.881Z,50.05
2018-02-15T08:56:12.547Z,42.50
2018-02-15T08:58:40.342Z,34.58
2018-02-15T09:01:08.006Z,46.42
2018-02-15T09:03:35.993Z,37.13
2018-02-15T09:06:03.667Z,41.30
2018-02-15T09:08:31.417Z,31.85
2018-02-15T09:10:59.409Z,28.67
2018-02-15T09:13:27.276Z,27.80
2018-02-15T09:15:54.974Z,34.30
2018-02-15T09:18:22.646Z,31.42
2018-02-15T09:20:50.647Z,27.02
2018-02-15T09:23:18.572Z,25.05
2018-02-15T09:25:46.215Z,58.87
2018-02-15T09:28:13.904Z,25.33
2018-02-15T09:30:41.588Z,38.83
2018-02-15T09:33:09.304Z,27.15
2018-02-15T09:35:36.983Z,49.10
2018-02-15T09:38:04.902Z,34.33
2018-02-15T09:40:32.899Z,73.85
2018-02-15T09:43:01.120Z,24.20
2018-02-15T09:45:28.801Z,32.58
2018-02-15T09:47:56.537Z,40.00
2018-02-15T09:50:24.257Z,36.55
2018-02-15T09:52:52.233Z,22.95
2018-02-15T09:55:20.207Z,45.97
2018-02-15T09:57:47.882Z,26.83
2018-02-15T10:00:15.795Z,33.47
2018-02-15T10:02:43.488Z,48.92
2018-02-15T10:05:11.159Z,45.28
2018-02-15T10:07:38.848Z,40.12
2018-02-15T10:10:07.187Z,34.63
2018-02-15T10:12:35.382Z,29.90
2018-02-15T10:15:03.347Z,33.45
2018-02-15T10:17:31.032Z,32.67
2018-02-15T10:19:58.727Z,26.98
2018-02-15T10:22:26.397Z,46.25
2018-02-15T10:24:54.115Z,23.12
2018-02-15T10:27:21.796Z,54.03
2018-02-15T10:29:49.506Z,43.25
2018-02-15T10:32:17.304Z,35.38
2018-02-15T10:34:45.030Z,38.83
2018-02-15T10:37:12.730Z,43.47
2018-02-15T10:39:40.488Z,55.40
2018-02-15T10:42:08.295Z,21.58
2018-02-15T10:44:36.310Z,26.40
2018-02-15T10:47:04.214Z,27.58
2018-02-15T10:49:31.889Z,27.95
2018-02-15T10:52:02.013Z,28.30
2018-02-15T10:54:29.958Z,27.30
2018-02-15T10:56:57.627Z,23.58
2018-02-15T10:59:25.324Z,22.73
2018-02-15T11:01:58.593Z,25.90
2018-02-15T11:04:31.895Z,29.20
2018-02-15T11:06:59.582Z,24.35
2018-02-15T11:09:27.454Z,18.37
2018-02-15T11:11:55.271Z,23.85
2018-02-15T11:14:23.369Z,21.37
2018-02-15T11:16:51.954Z,35.03
2018-02-15T11:19:19.602Z,29.65
2018-02-15T11:21:47.300Z,45.58
2018-02-15T11:24:14.966Z,20.95
2018-02-15T11:26:42.824Z,27.05
2018-02-15T11:29:10.495Z,34.03
2018-02-15T11:31:38.164Z,18.83
2018-02-15T11:34:05.968Z,28.00
2018-02-15T11:36:33.652Z,24.45
2018-02-15T11:39:01.339Z,18.35
2018-02-15T11:41:29.344Z,35.13
2018-02-15T11:43:57.850Z,23.10
2018-02-15T11:46:25.523Z,24.42
2018-02-15T11:48:53.200Z,15.90
2018-02-15T11:51:20.960Z,18.10
2018-02-15T11:53:48.632Z,21.25
2018-02-15T11:56:16.312Z,18.15
2018-02-15T11:58:43.971Z,28.10
2018-02-15T12:01:12.039Z,12.85
2018-02-15T12:03:39.708Z,24.23
2018-02-15T12:06:07.374Z,15.48
2018-02-15T12:08:35.067Z,13.93
2018-02-15T12:11:02.923Z,16.08
2018-02-15T12:13:31.153Z,15.40
2018-02-15T12:15:58.843Z,15.13
2018-02-15T12:18:26.606Z,14.10
2018-02-15T12:20:54.306Z,23.15
2018-02-15T12:23:21.975Z,43.28
2018-02-15T12:25:49.957Z,23.58
2018-02-15T12:28:17.625Z,14.38
2018-02-15T12:30:45.294Z,12.75
2018-02-15T12:33:13.000Z,13.57
2018-02-15T12:35:40.707Z,15.55
2018-02-15T12:38:08.518Z,25.05
2018-02-15T12:40:36.183Z,34.40
2018-02-15T12:43:04.395Z,21.23
2018-02-15T12:45:32.082Z,22.80
2018-02-15T12:48:03.831Z,27.42
2018-02-15T12:50:31.745Z,12.37
2018-02-15T12:52:59.419Z,13.88
2018-02-15T12:55:27.256Z,29.73
2018-02-15T12:57:55.001Z,17.62
2018-02-15T13:00:22.730Z,17.25
2018-02-15T13:02:50.411Z,12.02
2018-02-15T13:05:18.091Z,16.55
2018-02-15T13:07:45.802Z,10.43
2018-02-15T13:10:13.463Z,14.40
2018-02-15T13:12:52.767Z,13.07
2018-02-15T13:15:32.247Z,21.45
2018-02-15T13:17:59.919Z,8.30
2018-02-15T13:20:29.077Z,11.38
2018-02-15T13:22:56.807Z,9.98
2018-02-15T13:25:24.474Z,10.30
2018-02-15T13:28:04.021Z,7.65
2018-02-15T13:30:31.684Z,13.65
2018-02-15T13:32:59.572Z,21.45
2018-02-15T13:35:27.235Z,30.48
2018-02-15T13:37:54.935Z,15.32
2018-02-15T13:40:22.662Z,11.00
2018-02-15T13:42:50.360Z,13.35
2018-02-15T13:45:17.380Z,13.98
2018-02-15T13:47:45.054Z,18.10
2018-02-15T13:50:12.782Z,18.23
2018-02-15T13:52:40.439Z,9.95
2018-02-15T13:55:08.102Z,11.12
2018-02-15T13:57:35.795Z,14.50
2018-02-15T14:00:03.474Z,10.45
2018-02-15T14:02:31.172Z,13.38
2018-02-15T14:04:59.206Z,13.02
2018-02-15T14:07:27.047Z,11.02
2018-02-15T14:10:04.971Z,13.07
2018-02-15T14:12:40.425Z,12.40
2018-02-15T14:15:08.779Z,13.05
2018-02-15T14:17:36.495Z,14.70
2018-02-15T14:20:04.209Z,13.73
2018-02-15T14:22:31.868Z,14.07
2018-02-15T14:24:59.568Z,11.18
2018-02-15T14:27:27.252Z,18.77
2018-02-15T14:29:55.158Z,19.30
2018-02-15T14:32:23.037Z,13.25
2018-02-15T14:34:50.717Z,14.95
2018-02-15T14:37:18.791Z,11.70
2018-02-15T14:39:46.660Z,23.42
2018-02-15T14:42:14.356Z,23.38
2018-02-15T14:44:42.020Z,21.87
2018-02-15T14:47:10.152Z,15.85
2018-02-15T14:49:37.826Z,16.33
2018-02-15T14:52:05.779Z,22.48
2018-02-15T14:54:33.856Z,17.90
2018-02-15T14:57:01.521Z,23.23
2018-02-15T14:59:29.224Z,18.73
2018-02-15T15:01:56.926Z,29.35
2018-02-15T15:04:24.784Z,14.90
2018-02-15T15:06:53.057Z,17.37
2018-02-15T15:09:20.959Z,24.42
2018-02-15T15:11:48.645Z,25.65
2018-02-15T15:14:16.312Z,48.25
2018-02-15T15:16:47.584Z,17.90
2018-02-15T15:19:15.636Z,16.50
2018-02-15T15:21:43.339Z,17.33
2018-02-15T15:24:11.046Z,12.80
2018-02-15T15:26:38.742Z,17.42
2018-02-15T15:29:06.443Z,14.15
2018-02-15T15:31:34.117Z,9.75
2018-02-15T15:34:01.959Z,15.15
2018-02-15T15:36:29.747Z,13.73
2018-02-15T15:38:57.691Z,9.95
2018-02-15T15:41:25.890Z,15.32
2018-02-15T15:43:53.583Z,16.98
2018-02-15T15:46:21.300Z,16.70
2018-02-15T15:48:48.966Z,12.52
2018-02-15T15:51:16.715Z,22.08
2018-02-15T15:53:44.488Z,19.67
2018-02-15T15:56:12.150Z,9.88
2018-02-15T15:58:39.831Z,19.98
2018-02-15T16:01:07.508Z,16.67
2018-02-15T16:03:35.199Z,20.35
2018-02-15T16:06:02.878Z,16.15
2018-02-15T16:08:31.198Z,12.23
2018-02-15T16:10:59.069Z,14.00
2018-02-15T16:13:26.766Z,26.33
2018-02-15T16:15:54.458Z,11.15
2018-02-15T16:18:22.136Z,13.88
2018-02-15T16:20:49.827Z,16.27
2018-02-15T16:23:17.498Z,11.82
2018-02-15T16:25:45.633Z,24.65
2018-02-15T16:28:13.296Z,33.60
2018-02-15T16:30:40.966Z,45.28
2018-02-15T16:33:08.664Z,16.65
2018-02-15T16:35:36.351Z,20.42
2018-02-15T16:38:04.372Z,13.45
2018-02-15T16:40:32.284Z,11.02
2018-02-15T16:43:00.180Z,13.45
2018-02-15T16:45:27.865Z,18.40
2018-02-15T16:47:55.531Z,29.58
2018-02-15T16:50:23.249Z,26.80
2018-02-15T16:52:50.929Z,16.58
2018-02-15T16:55:18.627Z,15.48
2018-02-15T16:57:46.323Z,24.20
2018-02-15T17:00:14.431Z,17.37
2018-02-15T17:02:42.111Z,30.05
2018-02-15T17:05:09.772Z,17.92
2018-02-15T17:07:37.658Z,16.65
2018-02-15T17:10:05.615Z,37.30
2018-02-15T17:12:33.311Z,22.48
2018-02-15T17:15:00.975Z,17.67
2018-02-15T17:17:28.885Z,16.48
2018-02-15T17:19:56.547Z,20.55
2018-02-15T17:22:24.216Z,15.77
2018-02-15T17:24:51.899Z,16.05
2018-02-15T17:27:19.587Z,15.48
2018-02-15T17:29:47.316Z,16.42
2018-02-15T17:32:14.992Z,15.13
2018-02-15T17:34:42.657Z,16.10
2018-02-15T17:37:10.669Z,15.85
2018-02-15T17:39:38.327Z,23.58
2018-02-15T17:42:06.020Z,24.55
2018-02-15T17:44:33.689Z,11.90
2018-02-15T17:47:01.656Z,17.73
2018-02-15T17:49:29.387Z,13.23
2018-02-15T17:51:57.034Z,15.50
2018-02-15T17:54:24.721Z,13.48
2018-02-15T17:56:52.451Z,20.30
2018-02-15T17:59:20.134Z,15.20
2018-02-15T18:01:47.799Z,15.65
2018-02-15T18:04:15.547Z,21.15
2018-02-15T18:06:43.224Z,17.30
2018-02-15T18:09:10.891Z,22.77
2018-02-15T18:11:38.581Z,16.40
2018-02-15T18:14:06.242Z,12.05
2018-02-15T18:16:34.785Z,18.73
2018-02-15T18:19:02.459Z,16.50
2018-02-15T18:21:30.141Z,11.82
2018-02-15T18:23:57.804Z,11.60
2018-02-15T18:26:25.888Z,20.85
2018-02-15T18:28:53.563Z,18.87
2018-02-15T18:31:21.240Z,12.23
2018-02-15T18:33:48.940Z,17.80
2018-02-15T18:36:16.611Z,17.55
2018-02-15T18:38:44.303Z,16.52
2018-02-15T18:41:11.981Z,17.73
2018-02-15T18:43:39.672Z,23.45
2018-02-15T18:46:07.348Z,18.73
2018-02-15T18:48:35.084Z,15.77
2018-02-15T18:51:02.760Z,21.73
2018-02-15T18:53:30.434Z,19.37
2018-02-15T18:55:58.137Z,19.15
2018-02-15T18:58:25.828Z,19.90
2018-02-15T19:00:53.520Z,19.17
2018-02-15T19:03:21.233Z,21.42
2018-02-15T19:05:49.311Z,19.50
2018-02-15T19:08:17.127Z,18.73
2018-02-15T19:10:44.824Z,22.95
2018-02-15T19:13:12.518Z,30.55
2018-02-15T19:15:40.215Z,18.75
2018-02-15T19:18:07.927Z,26.48
2018-02-15T19:20:35.605Z,22.23
2018-02-15T19:23:03.469Z,21.25
2018-02-15T19:25:31.156Z,18.95
2018-02-15T19:27:58.843Z,20.55
2018-02-15T19:30:26.557Z,30.80
2018-02-15T19:32:54.251Z,22.08
2018-02-15T19:35:21.948Z,22.60
2018-02-15T19:37:49.633Z,28.73
2018-02-15T19:40:17.337Z,26.45
2018-02-15T19:42:45.006Z,23.95
2018-02-15T19:45:14.545Z,22.08
2018-02-15T19:47:42.225Z,21.40
2018-02-15T19:50:09.891Z,23.40
2018-02-15T19:52:37.601Z,31.35
2018-02-15T19:55:05.278Z,25.65
2018-02-15T19:57:32.977Z,27.48
2018-02-15T20:00:00.655Z,23.17
2018-02-15T20:02:28.389Z,25.35
2018-02-15T20:04:56.121Z,23.92
2018-02-15T20:07:23.791Z,27.90
2018-02-15T20:09:51.485Z,33.10
2018-02-15T20:12:19.166Z,35.30
2018-02-15T20:14:46.874Z,33.25
2018-02-15T20:17:14.569Z,28.70
2018-02-15T20:19:42.379Z,29.85
2018-02-15T20:22:10.731Z,31.23
2018-02-15T20:24:38.395Z,27.75
2018-02-15T20:27:11.667Z,28.15
2018-02-15T20:29:39.336Z,47.50
2018-02-15T20:32:07.039Z,33.67
2018-02-15T20:34:34.708Z,28.05
2018-02-15T20:37:02.408Z,39.13
2018-02-15T20:39:35.575Z,35.22
2018-02-15T20:42:03.276Z,30.90
2018-02-15T20:44:30.967Z,32.28
2018-02-15T20:46:58.648Z,35.92
2018-02-15T20:49:32.001Z,35.65
2018-02-15T20:52:05.136Z,35.67
2018-02-15T20:54:38.408Z,43.25
2018-02-15T20:57:06.084Z,39.85
2018-02-15T20:59:33.785Z,35.35
2018-02-15T21:02:01.471Z,37.50
2018-02-15T21:04:29.551Z,30.37
2018-02-15T21:06:57.224Z,43.58
2018-02-15T21:09:24.900Z,39.45
2018-02-15T21:11:52.595Z,45.03
2018-02-15T21:14:20.293Z,40.80
2018-02-15T21:16:48.003Z,41.75
2018-02-15T21:19:15.680Z,35.92
2018-02-15T21:21:43.489Z,39.47
2018-02-15T21:24:11.179Z,40.97
2018-02-15T21:26:38.886Z,48.72
2018-02-15T21:29:06.588Z,50.45
2018-02-15T21:31:34.266Z,40.25
2018-02-15T21:34:01.985Z,43.08
2018-02-15T21:36:29.666Z,38.35
2018-02-15T21:38:57.400Z,42.67
2018-02-15T21:41:25.070Z,40.78
2018-02-15T21:43:53.031Z,41.37
2018-02-15T21:46:20.727Z,39.50
2018-02-15T21:48:48.395Z,50.35
2018-02-15T21:51:16.098Z,39.40
2018-02-15T21:53:43.774Z,40.03
2018-02-15T21:56:11.671Z,50.78
2018-02-15T21:58:39.355Z,41.03
2018-02-15T22:01:07.106Z,44.53
2018-02-15T22:03:34.801Z,47.83
2018-02-15T22:06:02.483Z,41.92
2018-02-15T22:08:30.173Z,52.10
2018-02-15T22:10:57.839Z,43.30
2018-02-15T22:13:25.571Z,47.70
2018-02-15T22:15:53.250Z,36.80
2018-02-15T22:18:20.924Z,40.10
2018-02-15T22:20:48.635Z,41.28
2018-02-15T22:23:16.326Z,44.40
2018-02-15T22:25:44.024Z,44.20
2018-02-15T22:28:11.701Z,41.22
2018-02-15T22:30:39.520Z,44.67
2018-02-15T22:33:07.224Z,47.20
2018-02-15T22:35:34.888Z,38.95
2018-02-15T22:38:02.583Z,37.40
2018-02-15T22:40:30.263Z,42.88
2018-02-15T22:42:57.954Z,41.58
2018-02-15T22:45:25.651Z,44.42
2018-02-15T22:47:53.439Z,40.38
2018-02-15T22:50:21.121Z,53.08
2018-02-15T22:52:48.801Z,52.72
2018-02-15T22:55:16.506Z,43.05
2018-02-15T22:57:44.172Z,48.50
2018-02-15T23:00:11.860Z,41.30
2018-02-15T23:02:39.543Z,44.45
2018-02-15T23:05:07.536Z,42.42
2018-02-15T23:07:35.207Z,43.30
2018-02-15T23:10:02.879Z,45.38
2018-02-15T23:12:30.591Z,39.97
2018-02-15T23:14:58.255Z,44.25
2018-02-15T23:17:25.961Z,46.55
2018-02-15T23:19:53.640Z,47.25
2018-02-15T23:22:21.439Z,42.65
2018-02-15T23:24:49.113Z,42.75
2018-02-15T23:27:16.792Z,49.38
2018-02-15T23:29:44.493Z,50.08
2018-02-15T23:32:12.167Z,46.33
2018-02-15T23:34:39.870Z,46.53
2018-02-15T23:37:07.569Z,48.22
2018-02-15T23:39:35.301Z,42.92
2018-02-15T23:42:02.975Z,46.90
2018-02-15T23:44:30.676Z,44.67
2018-02-15T23:46:58.383Z,43.53
2018-02-15T23:49:26.067Z,44.90
2018-02-15T23:51:53.760Z,45.85
2018-02-15T23:54:21.441Z,49.92
2018-02-15T23:56:49.159Z,47.15
2018-02-15T23:59:16.833Z,44.20
